Thunderstorms From: 26-05-2018 21:24 Until: 27-05-2018 15:00 warning for: Thunderstorms Level: Yellow info button

Although rather usual in this region, locally or potentially dangerous phenomena are expected. (such as local winds, summer thunderstorms, rising streams or high waves) Be aware and pay attention to the latest weather updates, especially if you carry out activities exposed to weather or close to a stream or shoreline. 


Meteo18 Weather Cam more information Meteo18 Weather Cam


warning for Thunderstorms more information blitzortung!


Rain radar more information rain snow radar


Visit our other weather sites:

Template documentation
and downloads

And another site



Weather Underground History page Text

Daily Summary for March 30, 2016 Units:  Metric    English   Both
« Previous Day
Next Day »
Daily Weekly Monthly Yearly Custom
  High: Low: Average:
Temperature: -17.8 °C -13.6 °C -11.4 °C
Dew Point: -17.8 °C -13.9 °C -12.3 °C
Humidity: Humidity % 73 % 90 %
Wind Speed: 0 km/h 0 km/h 0.6 km/h
Wind Gust: 0 km/h - -
Wind:- - WSW
Pressure: 0 hPa 34120.7 hPa -
Precipitation: 147.32 mm    
Historical Graphs
 
 
Tabular Data for March 30, 2016
Time Temperature Dew Point Pressure Wind Wind Speed Wind Gust Humidity Rainfall Rate (Hourly)
-17.8 °C -17.8 °C 0 hPa Calm     Humidity % 0 mm
00:02 -13.6 °C -13.9 °C 34256.2 hPa Calm     95 % 0 mm
00:12 -13 °C -13.3 °C 34256.2 hPa Calm     96 % 0 mm
00:17 -12.9 °C -13.3 °C 34256.2 hPa Calm   2.6 km/h 95 % 0 mm
00:27 -13.1 °C -13.6 °C 34256.2 hPa Calm   2.6 km/h 94 % 0 mm
00:32 -13.2 °C -13.7 °C 34256.2 hPa Calm   2.6 km/h 94 % 0 mm
00:37 -13.3 °C -13.8 °C 34256.2 hPa Calm   2.6 km/h 94 % 0 mm
00:42 -13.4 °C -13.9 °C 34269.7 hPa Calm   2.6 km/h 94 % 0 mm
00:52 -13.4 °C -13.8 °C 34256.2 hPa Calm   2.6 km/h 95 % 0 mm
00:57 -13.3 °C -13.7 °C 34256.2 hPa Calm   2.6 km/h 96 % 0 mm
01:02 -13.3 °C -13.6 °C 34256.2 hPa Calm   2.6 km/h 96 % 0 mm
01:12 -13.2 °C -13.6 °C 34256.2 hPa Calm   2.6 km/h 96 % 0 mm
01:22 -13.2 °C -13.7 °C 34256.2 hPa Calm     95 % 0 mm
01:32 -13.2 °C -13.6 °C 34256.2 hPa Calm     96 % 0 mm
01:37 -13.2 °C -13.6 °C 34256.2 hPa Calm     96 % 0 mm
01:42 -13.2 °C -13.6 °C 34256.2 hPa Calm     96 % 0 mm
01:47 -13.2 °C -13.5 °C 34256.2 hPa Calm     96 % 0 mm
01:52 -13.1 °C -13.4 °C 34256.2 hPa Calm     96 % 0 mm
02:02 -13.1 °C -13.4 °C 34256.2 hPa Calm     96 % 0 mm
02:07 -13.1 °C -13.4 °C 34256.2 hPa Calm     96 % 0 mm
02:12 -13.1 °C -13.4 °C 34246 hPa Calm     96 % 0 mm
02:17 -13.1 °C -13.4 °C 34256.2 hPa Calm     96 % 0 mm
02:22 -13.1 °C -13.4 °C 34256.2 hPa Calm     96 % 0 mm
02:27 -13.1 °C -13.4 °C 34256.2 hPa Calm     96 % 0 mm
02:32 -13 °C -13.3 °C 34256.2 hPa Calm   2.6 km/h 96 % 0 mm
02:37 -12.9 °C -13.3 °C 34256.2 hPa Calm   2.6 km/h 96 % 0 mm
02:47 -12.9 °C -13.2 °C 34256.2 hPa Calm   2.6 km/h 96 % 0 mm
02:57 -12.9 °C -13.2 °C 34256.2 hPa Calm     96 % 0 mm
03:02 -12.9 °C -13.2 °C 34256.2 hPa Calm     96 % 0 mm
03:12 -12.9 °C -13.2 °C 34256.2 hPa Calm     96 % 0 mm
03:17 -12.9 °C -13.2 °C 34256.2 hPa Calm     96 % 0 mm
03:22 -12.9 °C -13.2 °C 34256.2 hPa Calm     96 % 0 mm
03:27 -12.8 °C -13.2 °C 34246 hPa Calm     96 % 7.62 mm
03:32 -12.8 °C -13.2 °C 34246 hPa Calm     96 % 7.62 mm
03:42 -12.8 °C -13.2 °C 34246 hPa Calm     96 % 7.62 mm
03:52 -12.7 °C -13 °C 34246 hPa Calm     97 % 7.62 mm
03:57 -12.7 °C -12.9 °C 34256.2 hPa Calm   2.6 km/h 97 % 12.7 mm
04:02 -12.6 °C -12.9 °C 34256.2 hPa Calm   2.6 km/h 97 % 12.7 mm
04:12 -12.6 °C -12.8 °C 34256.2 hPa Calm   2.6 km/h 97 % 12.7 mm
04:17 -12.4 °C -12.7 °C 34256.2 hPa Calm   5.1 km/h 97 % 12.7 mm
04:22 -12.4 °C -12.7 °C 34256.2 hPa Calm   5.1 km/h 97 % 12.7 mm
04:27 -12.5 °C -12.8 °C 34246 hPa SW 2.6 km/h 5.1 km/h 97 % 12.7 mm
04:32 -12.5 °C -12.8 °C 34256.2 hPa Calm   2.6 km/h 97 % 12.7 mm
04:37 -12.4 °C -12.7 °C 34256.2 hPa SW 2.6 km/h 2.6 km/h 97 % 20.32 mm
04:42 -12.4 °C -12.7 °C 34246 hPa SW 2.6 km/h 2.6 km/h 97 % 20.32 mm
04:47 -12.4 °C -12.7 °C 34256.2 hPa SSE 2.6 km/h 5.1 km/h 97 % 20.32 mm
04:52 -12.4 °C -12.7 °C 34246 hPa SSW 2.6 km/h 7.7 km/h 97 % 25.4 mm
04:57 -12.4 °C -12.7 °C 34246 hPa SW 2.6 km/h 7.7 km/h 97 % 25.4 mm
05:07 -12.4 °C -12.7 °C 34246 hPa Calm   7.7 km/h 97 % 25.4 mm
05:12 -12.4 °C -12.7 °C 34246 hPa Calm   10.3 km/h 97 % 25.4 mm
05:17 -12.4 °C -12.7 °C 34246 hPa SW 5.1 km/h 10.3 km/h 97 % 25.4 mm
05:27 -12.4 °C -12.7 °C 34246 hPa Calm   12.9 km/h 97 % 20.32 mm
05:32 -12.4 °C -12.7 °C 34246 hPa SW 5.1 km/h 7.7 km/h 97 % 20.32 mm
05:42 -12.3 °C -12.7 °C 34246 hPa SW 2.6 km/h 15.6 km/h 96 % 33.02 mm
05:47 -12.4 °C -12.7 °C 34246 hPa SW 5.1 km/h 15.6 km/h 96 % 33.02 mm
05:52 -12.4 °C -12.7 °C 34246 hPa SW 2.6 km/h 15.6 km/h 96 % 25.4 mm
05:57 -12.4 °C -12.7 °C 34246 hPa WSW 5.1 km/h 15.6 km/h 96 % 25.4 mm
06:02 -12.4 °C -12.9 °C 34246 hPa Calm   10.3 km/h 95 % 25.4 mm
06:07 -12.4 °C -12.9 °C 34246 hPa SW 5.1 km/h 10.3 km/h 95 % 25.4 mm
06:12 -12.4 °C -12.9 °C 34246 hPa Calm   12.9 km/h 95 % 25.4 mm
06:17 -12.4 °C -12.9 °C 34246 hPa SW 2.6 km/h 12.9 km/h 95 % 25.4 mm
06:22 -12.4 °C -12.9 °C 34246 hPa Calm   7.7 km/h 95 % 20.32 mm
06:32 -12.6 °C -13 °C 34246 hPa Calm   7.7 km/h 95 % 20.32 mm
06:37 -12.6 °C -13.1 °C 34246 hPa Calm   7.7 km/h 95 % 20.32 mm
06:42 -12.6 °C -13.1 °C 34246 hPa Calm   7.7 km/h 95 % 20.32 mm
06:47 -12.7 °C -13.1 °C 34246 hPa Calm   7.7 km/h 95 % 20.32 mm
06:52 -12.7 °C -13.1 °C 34246 hPa Calm   5.1 km/h 95 % 12.7 mm
07:02 -12.7 °C -13.2 °C 34246 hPa Calm   5.1 km/h 95 % 12.7 mm
07:07 -12.7 °C -13.2 °C 34246 hPa Calm   5.1 km/h 95 % 12.7 mm
07:12 -12.8 °C -13.2 °C 34246 hPa Calm   2.6 km/h 95 % 12.7 mm
07:22 -12.8 °C -13.2 °C 34246 hPa Calm     95 % 12.7 mm
07:37 -12.8 °C -13.2 °C 34246 hPa Calm   2.6 km/h 96 % 20.32 mm
07:42 -12.8 °C -13.2 °C 34256.2 hPa Calm   2.6 km/h 96 % 20.32 mm
07:47 -12.8 °C -13.2 °C 34256.2 hPa Calm   2.6 km/h 96 % 20.32 mm
07:52 -12.8 °C -13.2 °C 34256.2 hPa Calm     96 % 20.32 mm
07:57 -12.8 °C -13.2 °C 34256.2 hPa Calm     96 % 20.32 mm
08:07 -12.8 °C -13.2 °C 34246 hPa Calm   2.6 km/h 96 % 20.32 mm
08:17 -12.8 °C -13.1 °C 34256.2 hPa Calm     96 % 12.7 mm
08:22 -12.8 °C -13.1 °C 34256.2 hPa Calm     96 % 12.7 mm
08:32 -12.8 °C -13.1 °C 34256.2 hPa Calm     96 % 12.7 mm
08:37 -12.8 °C -13.1 °C 34256.2 hPa Calm     96 % 12.7 mm
08:42 -12.8 °C -13.2 °C 34269.7 hPa Calm     96 % 20.32 mm
08:47 -12.8 °C -13.2 °C 34269.7 hPa Calm     96 % 20.32 mm
08:52 -12.9 °C -13.2 °C 34269.7 hPa Calm     96 % 25.4 mm
08:57 -12.9 °C -13.2 °C 34269.7 hPa Calm     96 % 25.4 mm
09:07 -12.9 °C -13.3 °C 34269.7 hPa Calm   2.6 km/h 96 % 38.1 mm
09:12 -12.9 °C -13.3 °C 34256.2 hPa Calm   2.6 km/h 96 % 38.1 mm
09:22 -12.9 °C -13.2 °C 34269.7 hPa Calm   2.6 km/h 96 % 38.1 mm
09:27 -12.8 °C -13.3 °C 34269.7 hPa Calm   2.6 km/h 95 % 38.1 mm
09:32 -12.8 °C -13.3 °C 34269.7 hPa Calm   2.6 km/h 95 % 38.1 mm
09:42 -12.8 °C -13.2 °C 34269.7 hPa Calm   2.6 km/h 95 % 25.4 mm
09:52 -12.7 °C -13.2 °C 34269.7 hPa Calm   5.1 km/h 95 % 12.7 mm
09:57 -12.7 °C -13.2 °C 34279.9 hPa Calm   5.1 km/h 94 % 12.7 mm
10:07 -12.8 °C -13.3 °C 34269.7 hPa Calm   2.6 km/h 95 % 0 mm
10:12 -12.8 °C -13.3 °C 34279.9 hPa West 2.6 km/h 2.6 km/h 95 % 7.62 mm
10:22 -12.8 °C -13.3 °C 34293.4 hPa WSW 2.6 km/h 2.6 km/h 95 % 7.62 mm
10:32 -12.8 °C -13.3 °C 34293.4 hPa Calm   2.6 km/h 95 % 7.62 mm
10:37 -12.8 °C -13.2 °C 34293.4 hPa Calm   2.6 km/h 95 % 7.62 mm
10:42 -12.7 °C -13.2 °C 34293.4 hPa Calm   2.6 km/h 94 % 7.62 mm
10:47 -12.8 °C -13.3 °C 34293.4 hPa Calm   2.6 km/h 94 % 7.62 mm
10:52 -12.7 °C -13.2 °C 34279.9 hPa Calm   2.6 km/h 94 % 7.62 mm
10:57 -12.6 °C -13.1 °C 34279.9 hPa Calm   2.6 km/h 95 % 12.7 mm
11:02 -12.6 °C -13 °C 34293.4 hPa Calm   2.6 km/h 95 % 12.7 mm
11:12 -12.4 °C -12.9 °C 34293.4 hPa Calm   5.1 km/h 94 % 7.62 mm
11:17 -12.4 °C -13 °C 34279.9 hPa Calm   5.1 km/h 93 % 7.62 mm
11:22 -12.3 °C -13 °C 34293.4 hPa Calm   2.6 km/h 92 % 7.62 mm
11:27 -12.3 °C -12.9 °C 34293.4 hPa Calm   2.6 km/h 93 % 7.62 mm
11:32 -12.3 °C -12.9 °C 34279.9 hPa Calm   2.6 km/h 93 % 7.62 mm
11:37 -12.3 °C -13.1 °C 34279.9 hPa Calm   2.6 km/h 91 % 7.62 mm
11:42 -12.3 °C -13 °C 34279.9 hPa Calm   2.6 km/h 92 % 7.62 mm
11:47 -12.3 °C -12.9 °C 34279.9 hPa Calm   2.6 km/h 92 % 0 mm
11:52 -12.1 °C -13 °C 34279.9 hPa Calm   2.6 km/h 90 % 0 mm
11:57 -11.9 °C -12.7 °C 34279.9 hPa Calm   5.1 km/h 91 % 0 mm
12:02 -11.8 °C -12.7 °C 34279.9 hPa Calm   5.1 km/h 90 % 0 mm
12:12 -11.7 °C -12.7 °C 34293.4 hPa Calm   5.1 km/h 89 % 0 mm
12:17 -11.6 °C -12.5 °C 34279.9 hPa Calm   5.1 km/h 90 % 0 mm
12:22 -11.6 °C -12.5 °C 34293.4 hPa Calm   5.1 km/h 89 % 0 mm
12:32 -11.4 °C -12.4 °C 34279.9 hPa Calm   5.1 km/h 89 % 0 mm
12:42 -11.2 °C -12.3 °C 34279.9 hPa West 2.6 km/h 2.6 km/h 88 % 0 mm
12:47 -11.3 °C -12.4 °C 34279.9 hPa Calm   5.1 km/h 88 % 0 mm
12:52 -11.3 °C -12.3 °C 34279.9 hPa Calm   5.1 km/h 89 % 0 mm
12:57 -11.2 °C -12.3 °C 34269.7 hPa Calm   5.1 km/h 88 % 0 mm
13:02 -11.1 °C -12.1 °C 34269.7 hPa WSW 2.6 km/h 2.6 km/h 88 % 0 mm
13:07 -10.9 °C -11.9 °C 34269.7 hPa Calm   5.1 km/h 88 % 0 mm
13:12 -10.7 °C -12 °C 34269.7 hPa Calm   5.1 km/h 86 % 0 mm
13:22 -10.4 °C -11.8 °C 34269.7 hPa Calm   5.1 km/h 85 % 0 mm
13:27 -10.2 °C -11.5 °C 34269.7 hPa Calm   5.1 km/h 86 % 0 mm
13:32 -10.2 °C -11.6 °C 34256.2 hPa Calm   5.1 km/h 85 % 0 mm
13:37 -10.1 °C -11.6 °C 34256.2 hPa Calm   5.1 km/h 84 % 0 mm
13:42 -10.1 °C -11.7 °C 34256.2 hPa Calm   5.1 km/h 83 % 0 mm
13:47 -10.2 °C -11.7 °C 34256.2 hPa Calm   5.1 km/h 83 % 0 mm
13:52 -10 °C -11.4 °C 34256.2 hPa Calm   5.1 km/h 85 % 0 mm
13:57 -9.8 °C -11.3 °C 34256.2 hPa Calm   5.1 km/h 84 % 0 mm
14:02 -9.8 °C -11.5 °C 34256.2 hPa Calm   5.1 km/h 82 % 0 mm
14:07 -9.9 °C -11.7 °C 34256.2 hPa SW 5.1 km/h 10.3 km/h 81 % 0 mm
14:12 -9.9 °C -11.6 °C 34246 hPa Calm   10.3 km/h 82 % 0 mm
14:17 -9.9 °C -11.7 °C 34246 hPa Calm   10.3 km/h 81 % 0 mm
14:22 -9.9 °C -11.4 °C 34246 hPa Calm   7.7 km/h 83 % 0 mm
14:27 -9.8 °C -11.6 °C 34235.8 hPa Calm   5.1 km/h 81 % 0 mm
14:32 -9.8 °C -11.4 °C 34235.8 hPa Calm   5.1 km/h 83 % 0 mm
14:42 -9.8 °C -11.6 °C 34235.8 hPa Calm   2.6 km/h 81 % 0 mm
14:52 -9.9 °C -11.4 °C 34222.3 hPa Calm   2.6 km/h 84 % 0 mm
14:57 -9.6 °C -11.1 °C 34222.3 hPa Calm   2.6 km/h 84 % 0 mm
15:02 -9.4 °C -11.1 °C 34222.3 hPa WNW 2.6 km/h 2.6 km/h 82 % 0 mm
15:12 -9.2 °C -10.8 °C 34198.6 hPa Calm   5.1 km/h 83 % 0 mm
15:17 -9.1 °C -11 °C 34212.1 hPa Calm   5.1 km/h 80 % 0 mm
15:22 -9.2 °C -10.9 °C 34212.1 hPa Calm   5.1 km/h 81 % 0 mm
15:27 -8.8 °C -10.7 °C 34198.6 hPa Calm   7.7 km/h 81 % 0 mm
15:32 -8.7 °C -10.7 °C 34198.6 hPa North 2.6 km/h 7.7 km/h 79 % 0 mm
15:42 -8.3 °C -10.4 °C 34198.6 hPa Calm   12.9 km/h 78 % 0 mm
15:47 -8.2 °C -10.3 °C 34188.4 hPa WSW 10.3 km/h 12.9 km/h 79 % 0 mm
15:52 -8.3 °C -10.7 °C 34188.4 hPa Calm   12.9 km/h 76 % 0 mm
15:57 -8.3 °C -10.4 °C 34188.4 hPa Calm   12.9 km/h 79 % 0 mm
16:02 -8.1 °C -10.1 °C 34178.3 hPa West 2.6 km/h 10.3 km/h 80 % 0 mm
16:12 -7.9 °C -10.2 °C 34178.3 hPa SW 5.1 km/h 10.3 km/h 77 % 0 mm
16:17 -7.8 °C -10.2 °C 34178.3 hPa Calm   15.6 km/h 76 % 0 mm
16:22 -7.8 °C -10.6 °C 34178.3 hPa SW 2.6 km/h 15.6 km/h 73 % 0 mm
16:27 -8.1 °C -10.6 °C 34164.7 hPa Calm   15.6 km/h 75 % 0 mm
16:32 -8.3 °C -10.6 °C 34164.7 hPa NW 2.6 km/h 12.9 km/h 77 % 0 mm
16:37 -8.4 °C -10.6 °C 34164.7 hPa Calm   10.3 km/h 78 % 0 mm
16:42 -8.2 °C -10.3 °C 34164.7 hPa West 5.1 km/h 10.3 km/h 78 % 0 mm
16:47 -8.1 °C -10.4 °C 34164.7 hPa West 7.7 km/h 15.6 km/h 76 % 0 mm
16:52 -8.1 °C -10.3 °C 34164.7 hPa West 5.1 km/h 15.6 km/h 78 % 0 mm
16:57 -8.3 °C -10.7 °C 34164.7 hPa West 5.1 km/h 15.6 km/h 76 % 0 mm
17:02 -8.3 °C -10.5 °C 34164.7 hPa SW 2.6 km/h 18.2 km/h 78 % 0 mm
17:12 -8.3 °C -10.4 °C 34164.7 hPa West 2.6 km/h 18.2 km/h 78 % 0 mm
17:17 -8.4 °C -10.6 °C 34154.6 hPa West 2.6 km/h 10.3 km/h 78 % 0 mm
17:22 -8.6 °C -10.5 °C 34154.6 hPa WNW 2.6 km/h 7.7 km/h 80 % 0 mm
17:27 -8.6 °C -10.7 °C 34154.6 hPa Calm   7.7 km/h 79 % 0 mm
17:32 -8.6 °C -10.7 °C 34154.6 hPa West 2.6 km/h 7.7 km/h 78 % 0 mm
17:37 -8.7 °C -10.7 °C 34154.6 hPa Calm   7.7 km/h 79 % 0 mm
17:47 -8.6 °C -10.5 °C 34144.4 hPa Calm   5.1 km/h 80 % 0 mm
17:52 -8.7 °C -10.6 °C 34144.4 hPa Calm   5.1 km/h 81 % 0 mm
17:57 -8.8 °C -10.8 °C 34144.4 hPa West 2.6 km/h 5.1 km/h 80 % 0 mm
18:02 -8.9 °C -10.8 °C 34144.4 hPa West 7.7 km/h 7.7 km/h 81 % 0 mm
18:12 -9.1 °C -10.9 °C 34144.4 hPa Calm   7.7 km/h 81 % 0 mm
18:17 -9.1 °C -10.8 °C 34144.4 hPa Calm   7.7 km/h 82 % 0 mm
18:22 -9.1 °C -10.8 °C 34144.4 hPa Calm   7.7 km/h 82 % 0 mm
18:32 -9 °C -10.6 °C 34130.9 hPa Calm   2.6 km/h 83 % 0 mm
18:37 -9.1 °C -10.8 °C 34130.9 hPa Calm   2.6 km/h 82 % 0 mm
18:42 -9.1 °C -10.8 °C 34130.9 hPa Calm   2.6 km/h 82 % 0 mm
18:52 -9.2 °C -10.8 °C 34130.9 hPa Calm   2.6 km/h 83 % 0 mm
18:57 -9.3 °C -10.6 °C 34130.9 hPa NE 2.6 km/h 2.6 km/h 87 % 0 mm
19:02 -9.5 °C -10.8 °C 34130.9 hPa NE 5.1 km/h 5.1 km/h 86 % 0 mm
19:12 -9.6 °C -10.9 °C 34130.9 hPa Calm   5.1 km/h 86 % 0 mm
19:17 -9.7 °C -10.8 °C 34130.9 hPa Calm   7.7 km/h 87 % 0 mm
19:22 -9.8 °C -10.9 °C 34130.9 hPa Calm   7.7 km/h 87 % 0 mm
19:27 -9.8 °C -10.9 °C 34130.9 hPa Calm   2.6 km/h 88 % 0 mm
19:32 -9.9 °C -11 °C 34120.7 hPa Calm   2.6 km/h 88 % 0 mm
19:37 -10 °C -11 °C 34130.9 hPa Calm   2.6 km/h 89 % 0 mm
19:42 -10.1 °C -11.2 °C 34130.9 hPa Calm   2.6 km/h 88 % 0 mm
19:52 -10.2 °C -11.2 °C 34130.9 hPa Calm   2.6 km/h 89 % 0 mm
19:57 -10.4 °C -11.3 °C 34130.9 hPa Calm   2.6 km/h 90 % 0 mm
20:02 -10.6 °C -11.4 °C 34130.9 hPa Calm   2.6 km/h 90 % 0 mm
20:07 -10.6 °C -11.4 °C 34130.9 hPa Calm   2.6 km/h 91 % 0 mm
20:12 -10.6 °C -11.4 °C 34130.9 hPa Calm   2.6 km/h 91 % 0 mm
20:17 -10.7 °C -11.4 °C 34144.4 hPa Calm   2.6 km/h 91 % 0 mm
20:22 -10.7 °C -11.5 °C 34130.9 hPa Calm   2.6 km/h 91 % 0 mm
20:27 -10.8 °C -11.7 °C 34130.9 hPa Calm   2.6 km/h 90 % 0 mm
20:32 -10.8 °C -11.6 °C 34130.9 hPa Calm   2.6 km/h 91 % 0 mm
20:37 -10.9 °C -11.7 °C 34130.9 hPa Calm   2.6 km/h 91 % 0 mm
20:42 -11.1 °C -11.8 °C 34130.9 hPa Calm   2.6 km/h 91 % 0 mm
21:02 -11.2 °C -11.8 °C 34130.9 hPa Calm     93 % 0 mm
21:07 -11.3 °C -12.1 °C 34144.4 hPa Calm     92 % 0 mm
21:12 -11.4 °C -12 °C 34144.4 hPa Calm     93 % 0 mm
21:17 -11.5 °C -12.1 °C 34130.9 hPa Calm     93 % 0 mm
21:22 -11.6 °C -12.2 °C 34144.4 hPa Calm     93 % 0 mm
21:27 -11.6 °C -12.1 °C 34144.4 hPa Calm     94 % 0 mm
21:32 -11.6 °C -12.1 °C 34144.4 hPa Calm     94 % 0 mm
21:37 -11.6 °C -12.1 °C 34144.4 hPa Calm     94 % 0 mm
21:42 -11.7 °C -12.2 °C 34144.4 hPa Calm     94 % 0 mm
21:47 -11.8 °C -12.3 °C 34130.9 hPa Calm     94 % 0 mm
21:52 -11.8 °C -12.3 °C 34130.9 hPa Calm     94 % 0 mm
21:57 -11.9 °C -12.3 °C 34130.9 hPa Calm     95 % 0 mm
22:02 -11.9 °C -12.3 °C 34144.4 hPa Calm     95 % 0 mm
22:12 -11.7 °C -12.1 °C 34130.9 hPa Calm     96 % 0 mm
22:17 -11.6 °C -11.9 °C 34144.4 hPa Calm   5.1 km/h 96 % 0 mm
22:22 -11.6 °C -11.9 °C 34144.4 hPa Calm   5.1 km/h 96 % 0 mm
22:27 -11.6 °C -12 °C 34130.9 hPa Calm   2.6 km/h 95 % 0 mm
22:32 -11.6 °C -12.1 °C 34130.9 hPa Calm   2.6 km/h 94 % 0 mm
22:37 -11.7 °C -12.2 °C 34130.9 hPa Calm   2.6 km/h 95 % 0 mm
22:42 -11.8 °C -12.2 °C 34130.9 hPa Calm   2.6 km/h 95 % 0 mm
22:47 -11.8 °C -12.3 °C 34130.9 hPa Calm     95 % 0 mm
22:57 -12 °C -12.4 °C 34130.9 hPa ENE 2.6 km/h 2.6 km/h 95 % 0 mm
23:02 -11.9 °C -12.3 °C 34120.7 hPa Calm   2.6 km/h 96 % 0 mm
23:12 -12 °C -12.3 °C 34120.7 hPa Calm   5.1 km/h 96 % 0 mm
23:17 -12.1 °C -12.6 °C 34120.7 hPa Calm   5.1 km/h 95 % 0 mm
23:22 -12.2 °C -12.6 °C 34120.7 hPa Calm   2.6 km/h 95 % 0 mm
23:27 -12.3 °C -12.6 °C 34130.9 hPa Calm     96 % 0 mm
23:32 -12.2 °C -12.5 °C 34130.9 hPa Calm     96 % 0 mm
23:37 -12.1 °C -12.4 °C 34144.4 hPa Calm     96 % 0 mm
23:42 -12.1 °C -12.4 °C 34144.4 hPa Calm     96 % 0 mm
23:47 -12 °C -12.3 °C 34154.6 hPa Calm     96 % 0 mm
23:52 -11.9 °C -12.3 °C 34154.6 hPa Calm     96 % 0 mm
23:57 -11.9 °C -12.2 °C 34154.6 hPa Calm     97 % 0 mm
Meteo18
Compliments of Weather Underground - 4 mb

Script developed by  Jim McMurry - jmcmurry@mwt.net Adapted for the template by  Wim van der Kuil - Leuven-Template.eu

You find our weather info also at:

European Weather Network

Weather Underground

Equipment we use:

Weather-station
Davis Vue

Weather-program
Meteobridge

Weather-server
Raspberry PI 2 B+

Provider
1 and 1

Davis Vue

Meteobridge

Raspberry PI 2 B+

1 and 1